createdAt,value
2022-08-28T00:00:12.573Z,99412.63
2022-08-28T00:02:39.176Z,99409.44
2022-08-28T00:05:08.079Z,99412.63
2022-08-28T00:07:35.027Z,99408.63
2022-08-28T00:10:01.989Z,99411.38
2022-08-28T00:12:28.577Z,99405.44
2022-08-28T00:14:55.188Z,99412.53
2022-08-28T00:17:21.739Z,99410.59
2022-08-28T00:19:48.415Z,99408.53
2022-08-28T00:22:14.992Z,99410.00
2022-08-28T00:24:43.040Z,99407.59
2022-08-28T00:27:28.303Z,99408.41
2022-08-28T00:29:54.980Z,99403.72
2022-08-28T00:32:25.218Z,99414.69
2022-08-28T00:34:52.138Z,99408.41
2022-08-28T00:37:18.982Z,99417.88
2022-08-28T00:39:46.430Z,99411.59
2022-08-28T00:42:13.984Z,99414.69
2022-08-28T00:44:40.879Z,99419.72
2022-08-28T00:47:08.492Z,99415.03
2022-08-28T00:49:40.988Z,99413.09
2022-08-28T00:52:12.423Z,99418.56
2022-08-28T00:54:57.264Z,99412.19
2022-08-28T00:57:34.431Z,99419.97
2022-08-28T01:00:01.633Z,99421.56
2022-08-28T01:02:28.495Z,99418.94
2022-08-28T01:04:55.690Z,99424.84
2022-08-28T01:07:23.182Z,99425.63
2022-08-28T01:09:54.076Z,99420.16
2022-08-28T01:12:29.480Z,99425.19
2022-08-28T01:15:00.118Z,99426.34
2022-08-28T01:17:31.378Z,99417.66
2022-08-28T01:20:03.127Z,99422.25
2022-08-28T01:22:29.607Z,99423.75
2022-08-28T01:25:00.860Z,99429.91
2022-08-28T01:27:27.918Z,99424.00
2022-08-28T01:29:55.440Z,99425.97
2022-08-28T01:32:42.023Z,99426.66
2022-08-28T01:35:12.276Z,99425.06
2022-08-28T01:37:39.251Z,99420.03
2022-08-28T01:40:09.436Z,99418.06
2022-08-28T01:42:39.598Z,99420.97
2022-08-28T01:45:11.036Z,99421.41
2022-08-28T01:47:42.329Z,99419.81
2022-08-28T01:50:11.091Z,99420.50
2022-08-28T01:52:39.695Z,99423.94
2022-08-28T01:55:07.871Z,99420.75
2022-08-28T01:57:35.361Z,99412.88
2022-08-28T02:00:02.300Z,99412.44
2022-08-28T02:02:29.290Z,99414.41
2022-08-28T02:04:55.843Z,99408.03
2022-08-28T02:07:22.450Z,99400.97
2022-08-28T02:09:49.183Z,99412.56
2022-08-28T02:12:15.738Z,99410.09
2022-08-28T02:14:42.304Z,99408.38
2022-08-28T02:17:08.893Z,99416.84
2022-08-28T02:19:36.000Z,99417.53
2022-08-28T02:22:04.077Z,99420.16
2022-08-28T02:24:30.639Z,99417.41
2022-08-28T02:26:57.178Z,99421.53
2022-08-28T02:29:23.871Z,99416.75
2022-08-28T02:31:50.405Z,99419.50
2022-08-28T02:34:16.931Z,99417.44
2022-08-28T02:36:43.822Z,99413.13
2022-08-28T02:39:11.137Z,99413.78
2022-08-28T02:41:37.729Z,99399.66
2022-08-28T02:44:04.797Z,99411.75
2022-08-28T02:46:31.594Z,99409.66
2022-08-28T02:48:58.188Z,99406.47
2022-08-28T02:51:25.346Z,99402.84
2022-08-28T02:53:52.388Z,99403.97
2022-08-28T02:56:19.001Z,99400.81
2022-08-28T02:58:45.597Z,99402.19
2022-08-28T03:01:13.497Z,99396.59
2022-08-28T03:03:41.589Z,99400.34
2022-08-28T03:06:09.915Z,99397.16
2022-08-28T03:08:36.658Z,99399.44
2022-08-28T03:11:03.234Z,99397.06
2022-08-28T03:13:30.544Z,99392.75
2022-08-28T03:15:58.051Z,99400.13
2022-08-28T03:18:27.037Z,99395.81
2022-08-28T03:20:55.611Z,99391.47
2022-08-28T03:23:29.179Z,99395.34
2022-08-28T03:26:10.684Z,99392.16
2022-08-28T03:28:40.786Z,99399.09
2022-08-28T03:31:09.469Z,99385.78
2022-08-28T03:33:36.060Z,99399.69
2022-08-28T03:36:04.760Z,99391.69
2022-08-28T03:38:31.674Z,99399.34
2022-08-28T03:40:58.205Z,99397.25
2022-08-28T03:43:25.262Z,99395.66
2022-08-28T03:45:52.343Z,99390.09
2022-08-28T03:48:20.114Z,99396.03
2022-08-28T03:50:47.496Z,99395.22
2022-08-28T03:53:15.906Z,99394.88
2022-08-28T03:55:42.971Z,99394.44
2022-08-28T03:58:09.742Z,99393.53
2022-08-28T04:00:46.587Z,99399.31
2022-08-28T04:03:13.733Z,99402.84
2022-08-28T04:05:44.840Z,99401.25
2022-08-28T04:08:16.581Z,99400.13
2022-08-28T04:10:45.251Z,99400.44
2022-08-28T04:13:13.606Z,99399.53
2022-08-28T04:15:41.387Z,99401.81
2022-08-28T04:18:09.659Z,99397.13
2022-08-28T04:20:36.667Z,99402.28
2022-08-28T04:23:04.139Z,99397.94
2022-08-28T04:25:31.770Z,99411.25
2022-08-28T04:27:58.945Z,99411.25
2022-08-28T04:30:25.504Z,99410.47
2022-08-28T04:32:52.022Z,99412.75
2022-08-28T04:35:18.675Z,99412.75
2022-08-28T04:37:45.193Z,99411.47
2022-08-28T04:40:13.185Z,99415.66
2022-08-28T04:42:40.235Z,99411.69
2022-08-28T04:45:07.378Z,99416.22
2022-08-28T04:47:37.987Z,99416.09
2022-08-28T04:50:06.738Z,99422.22
2022-08-28T04:52:33.427Z,99433.94
2022-08-28T04:55:00.228Z,99426.19
2022-08-28T04:57:26.793Z,99426.69
2022-08-28T04:59:53.327Z,99426.91
2022-08-28T05:02:20.029Z,99427.25
2022-08-28T05:04:47.343Z,99422.72
2022-08-28T05:07:14.181Z,99430.63
2022-08-28T05:09:40.758Z,99428.94
2022-08-28T05:12:07.514Z,99435.88
2022-08-28T05:14:34.108Z,99434.09
2022-08-28T05:17:00.915Z,99432.91
2022-08-28T05:19:28.105Z,99426.06
2022-08-28T05:21:55.065Z,99426.06
2022-08-28T05:24:22.568Z,99435.91
2022-08-28T05:26:49.404Z,99424.34
2022-08-28T05:29:17.248Z,99434.47
2022-08-28T05:31:44.429Z,99430.59
2022-08-28T05:34:13.366Z,99434.47
2022-08-28T05:36:40.282Z,99439.28
2022-08-28T05:39:09.627Z,99443.63
2022-08-28T05:41:38.216Z,99436.69
2022-08-28T05:44:08.067Z,99438.88
2022-08-28T05:46:37.568Z,99440.66
2022-08-28T05:49:09.169Z,99439.88
2022-08-28T05:51:36.722Z,99448.53
2022-08-28T05:54:03.839Z,99448.28
2022-08-28T05:56:34.367Z,99447.03
2022-08-28T05:59:02.282Z,99443.19
2022-08-28T06:01:31.862Z,99449.59
2022-08-28T06:04:02.071Z,99455.63
2022-08-28T06:06:30.793Z,99463.56
2022-08-28T06:08:59.891Z,99462.41
2022-08-28T06:11:30.641Z,99459.31
2022-08-28T06:14:02.811Z,99463.34
2022-08-28T06:16:31.702Z,99460.66
2022-08-28T06:18:59.223Z,99460.41
2022-08-28T06:21:26.161Z,99468.91
2022-08-28T06:23:52.939Z,99460.63
2022-08-28T06:26:19.492Z,99465.25
2022-08-28T06:28:46.063Z,99470.25
2022-08-28T06:31:24.723Z,99475.59
2022-08-28T06:33:57.280Z,99473.25
2022-08-28T06:36:27.356Z,99473.25
2022-08-28T06:38:55.319Z,99480.56
2022-08-28T06:41:21.913Z,99479.72
2022-08-28T06:43:48.516Z,99479.78
2022-08-28T06:46:15.377Z,99479.19
2022-08-28T06:48:42.096Z,99480.50
2022-08-28T06:51:11.021Z,99488.88
2022-08-28T06:53:39.906Z,99495.91
2022-08-28T06:56:26.278Z,99491.94
2022-08-28T06:58:55.675Z,99489.88
2022-08-28T07:01:29.531Z,99484.69
2022-08-28T07:04:00.162Z,99491.41
2022-08-28T07:06:28.006Z,99493.97
2022-08-28T07:08:54.740Z,99494.44
2022-08-28T07:11:28.890Z,99487.75
2022-08-28T07:13:56.631Z,99488.59
2022-08-28T07:16:27.454Z,99485.06
2022-08-28T07:19:11.262Z,99491.06
2022-08-28T07:21:41.907Z,99489.09
2022-08-28T07:24:10.554Z,99489.28
2022-08-28T07:26:40.887Z,99495.38
2022-08-28T07:29:09.943Z,99496.72
2022-08-28T07:31:40.772Z,99498.88
2022-08-28T07:34:08.013Z,99485.72
2022-08-28T07:36:35.124Z,99502.66
2022-08-28T07:39:01.656Z,99495.13
2022-08-28T07:41:31.582Z,99502.06
2022-08-28T07:44:17.313Z,99502.25
2022-08-28T07:46:45.038Z,99505.94
2022-08-28T07:49:12.528Z,99501.34
2022-08-28T07:51:39.214Z,99501.16
2022-08-28T07:54:05.854Z,99498.59
2022-08-28T07:56:33.156Z,99496.13
2022-08-28T07:59:01.140Z,99497.47
2022-08-28T08:01:30.831Z,99495.13
2022-08-28T08:04:01.784Z,99497.41
2022-08-28T08:06:33.719Z,99492.78
2022-08-28T08:09:02.045Z,99496.88
2022-08-28T08:11:32.241Z,99498.00
2022-08-28T08:14:05.465Z,99503.00
2022-08-28T08:16:39.074Z,99503.28
2022-08-28T08:19:10.026Z,99499.66
2022-08-28T08:21:37.350Z,99499.06
2022-08-28T08:24:04.427Z,99501.47
2022-08-28T08:26:31.249Z,99503.59
2022-08-28T08:28:58.126Z,99506.19
2022-08-28T08:31:32.476Z,99502.00
2022-08-28T08:34:02.111Z,99498.91
2022-08-28T08:36:30.417Z,99498.34
2022-08-28T08:38:59.715Z,99497.75
2022-08-28T08:41:31.999Z,99495.91
2022-08-28T08:44:06.143Z,99501.03
2022-08-28T08:46:49.308Z,99500.91
2022-08-28T08:49:19.696Z,99504.75
2022-08-28T08:52:12.984Z,99507.88
2022-08-28T08:55:02.967Z,99513.38
2022-08-28T08:57:32.105Z,99519.31
2022-08-28T08:59:58.904Z,99519.41
2022-08-28T09:02:32.870Z,99517.53
2022-08-28T09:05:13.120Z,99513.53
2022-08-28T09:07:56.607Z,99521.16
2022-08-28T09:10:25.728Z,99523.28
2022-08-28T09:13:06.723Z,99522.66
2022-08-28T09:15:39.292Z,99520.06
2022-08-28T09:18:19.356Z,99530.81
2022-08-28T09:20:51.645Z,99521.53
2022-08-28T09:23:18.438Z,99524.16
2022-08-28T09:25:51.705Z,99518.88
2022-08-28T09:28:32.325Z,99526.44
2022-08-28T09:30:58.996Z,99523.28
2022-08-28T09:33:37.982Z,99523.75
2022-08-28T09:36:27.140Z,99517.06
2022-08-28T09:39:10.256Z,99519.09
2022-08-28T09:41:59.643Z,99527.06
2022-08-28T09:44:26.245Z,99521.66
2022-08-28T09:46:53.078Z,99522.34
2022-08-28T09:49:26.394Z,99515.66
2022-08-28T09:51:54.356Z,99525.09
2022-08-28T09:54:48.288Z,99522.31
2022-08-28T09:57:14.835Z,99527.81
2022-08-28T09:59:42.255Z,99523.53
2022-08-28T10:02:23.310Z,99524.03
2022-08-28T10:04:55.415Z,99517.38
2022-08-28T10:07:39.176Z,99517.00
2022-08-28T10:10:42.475Z,99517.00
2022-08-28T10:13:37.308Z,99531.59
2022-08-28T10:16:10.163Z,99516.91
2022-08-28T10:19:05.344Z,99520.81
2022-08-28T10:21:31.842Z,99527.53
2022-08-28T10:24:26.007Z,99518.84
2022-08-28T10:27:03.179Z,99528.84
2022-08-28T10:29:49.527Z,99524.19
2022-08-28T10:32:42.596Z,99517.09
2022-08-28T10:35:12.942Z,99524.97
2022-08-28T10:37:45.599Z,99524.78
2022-08-28T10:40:26.329Z,99526.97
2022-08-28T10:43:14.532Z,99526.94
2022-08-28T10:45:41.808Z,99526.19
2022-08-28T10:48:22.376Z,99517.59
2022-08-28T10:50:56.545Z,99517.66
2022-08-28T10:53:30.413Z,99514.41
2022-08-28T10:56:03.666Z,99515.69
2022-08-28T10:58:34.345Z,99516.91
2022-08-28T11:01:06.829Z,99508.31
2022-08-28T11:03:44.107Z,99521.81
2022-08-28T11:06:27.479Z,99512.44
2022-08-28T11:08:57.791Z,99513.66
2022-08-28T11:11:46.843Z,99512.91
2022-08-28T11:14:27.585Z,99519.66
2022-08-28T11:16:58.549Z,99514.91
2022-08-28T11:19:43.868Z,99516.50
2022-08-28T11:22:18.342Z,99510.16
2022-08-28T11:24:48.052Z,99509.34
2022-08-28T11:27:24.131Z,99506.19
2022-08-28T11:30:01.328Z,99504.97
2022-08-28T11:32:28.750Z,99506.19
2022-08-28T11:35:32.382Z,99498.66
2022-08-28T11:37:58.989Z,99507.38
2022-08-28T11:40:28.400Z,99510.94
2022-08-28T11:43:16.267Z,99499.06
2022-08-28T11:45:46.655Z,99500.63
2022-08-28T11:48:22.843Z,99501.44
2022-08-28T11:51:04.770Z,99498.22
2022-08-28T11:53:49.807Z,99501.31
2022-08-28T11:56:35.937Z,99500.50
2022-08-28T11:59:17.582Z,99492.59
2022-08-28T12:01:44.233Z,99491.72
2022-08-28T12:04:15.454Z,99487.28
2022-08-28T12:06:45.093Z,99485.16
2022-08-28T12:09:13.342Z,99481.06
2022-08-28T12:11:42.152Z,99481.84
2022-08-28T12:14:08.667Z,99486.25
2022-08-28T12:16:58.484Z,99477.84
2022-08-28T12:19:41.098Z,99478.53
2022-08-28T12:22:22.785Z,99475.31
2022-08-28T12:25:03.071Z,99476.94
2022-08-28T12:27:31.867Z,99471.31
2022-08-28T12:30:00.721Z,99463.91
2022-08-28T12:32:48.586Z,99458.31
2022-08-28T12:35:22.022Z,99471.31
2022-08-28T12:37:54.555Z,99471.47
2022-08-28T12:40:23.515Z,99466.59
2022-08-28T12:43:00.277Z,99464.06
2022-08-28T12:45:50.291Z,99459.31
2022-08-28T12:48:52.415Z,99457.69
2022-08-28T12:51:20.899Z,99453.44
2022-08-28T12:53:51.516Z,99455.53
2022-08-28T12:56:20.113Z,99458.03
2022-08-28T12:58:47.619Z,99461.94
2022-08-28T13:01:33.383Z,99447.59
2022-08-28T13:04:05.578Z,99447.66
2022-08-28T13:06:38.286Z,99449.28
2022-08-28T13:09:16.681Z,99450.22
2022-08-28T13:11:49.252Z,99447.47
2022-08-28T13:14:39.465Z,99454.25
2022-08-28T13:17:06.681Z,99457.41
2022-08-28T13:19:35.805Z,99452.63
2022-08-28T13:22:03.636Z,99446.56
2022-08-28T13:24:46.048Z,99441.25
2022-08-28T13:27:12.545Z,99436.91
2022-08-28T13:30:08.697Z,99440.53
2022-08-28T13:32:39.128Z,99441.06
2022-08-28T13:35:29.300Z,99432.13
2022-08-28T13:37:59.394Z,99449.78
2022-08-28T13:40:56.920Z,99436.09
2022-08-28T13:43:20.136Z,99442.56
2022-08-28T13:45:48.802Z,99438.13
2022-08-28T13:48:19.202Z,99436.91
2022-08-28T13:50:49.779Z,99429.34
2022-08-28T13:53:19.781Z,99434.03
2022-08-28T13:55:48.980Z,99428.38
2022-08-28T13:58:16.187Z,99424.97
2022-08-28T14:00:48.518Z,99417.09
2022-08-28T14:03:34.634Z,99418.94
2022-08-28T14:06:02.919Z,99417.59
2022-08-28T14:08:30.736Z,99409.78
2022-08-28T14:10:57.665Z,99402.66
2022-08-28T14:13:27.499Z,99409.53
2022-08-28T14:15:56.079Z,99407.50
2022-08-28T14:18:24.291Z,99395.31
2022-08-28T14:20:50.881Z,99398.38
2022-08-28T14:23:17.564Z,99403.56
2022-08-28T14:25:47.685Z,99400.00
2022-08-28T14:28:15.393Z,99398.88
2022-08-28T14:30:46.950Z,99401.56
2022-08-28T14:33:16.970Z,99402.69
2022-08-28T14:35:43.584Z,99406.78
2022-08-28T14:38:11.354Z,99401.44
2022-08-28T14:40:40.467Z,99395.19
2022-08-28T14:43:09.765Z,99395.81
2022-08-28T14:45:47.101Z,99397.75
2022-08-28T14:48:15.013Z,99396.97
2022-08-28T14:50:43.183Z,99394.72
2022-08-28T14:53:10.500Z,99398.91
2022-08-28T14:55:46.206Z,99397.09
2022-08-28T14:58:13.589Z,99392.78
2022-08-28T15:00:43.498Z,99389.56
2022-08-28T15:03:10.842Z,99394.91
2022-08-28T15:05:37.506Z,99397.16
2022-08-28T15:08:12.774Z,99387.41
2022-08-28T15:10:43.332Z,99389.88
2022-08-28T15:13:10.786Z,99391.69
2022-08-28T15:15:42.531Z,99389.94
2022-08-28T15:18:10.700Z,99385.38
2022-08-28T15:20:46.283Z,99389.59
2022-08-28T15:23:14.881Z,99392.06
2022-08-28T15:25:41.832Z,99382.38
2022-08-28T15:28:08.452Z,99392.72
2022-08-28T15:30:36.713Z,99372.63
2022-08-28T15:33:03.371Z,99375.84
2022-08-28T15:35:30.135Z,99370.63
2022-08-28T15:37:57.157Z,99369.03
2022-08-28T15:40:42.081Z,99370.81
2022-08-28T15:43:08.916Z,99371.78
2022-08-28T15:45:40.295Z,99374.34
2022-08-28T15:48:07.018Z,99372.94
2022-08-28T15:50:34.011Z,99379.16
2022-08-28T15:53:01.575Z,99376.31
2022-08-28T15:55:28.253Z,99388.03
2022-08-28T15:57:55.141Z,99379.63
2022-08-28T16:00:22.677Z,99386.69
2022-08-28T16:02:49.552Z,99383.47
2022-08-28T16:05:16.470Z,99380.72
2022-08-28T16:07:43.121Z,99374.66
2022-08-28T16:10:13.418Z,99372.06
2022-08-28T16:12:40.932Z,99359.59
2022-08-28T16:15:08.680Z,99366.19
2022-08-28T16:17:35.419Z,99364.53
2022-08-28T16:20:05.227Z,99369.94
2022-08-28T16:22:36.262Z,99371.97
2022-08-28T16:25:05.982Z,99365.81
2022-08-28T16:27:32.668Z,99367.28
2022-08-28T16:29:59.390Z,99369.19
2022-08-28T16:32:25.962Z,99371.31
2022-08-28T16:34:52.661Z,99368.38
2022-08-28T16:37:21.429Z,99367.63
2022-08-28T16:39:53.782Z,99367.81
2022-08-28T16:42:20.365Z,99368.16
2022-08-28T16:44:46.920Z,99368.94
2022-08-28T16:47:13.792Z,99371.94
2022-08-28T16:49:40.340Z,99369.63
2022-08-28T16:52:06.953Z,99371.94
2022-08-28T16:54:33.543Z,99375.47
2022-08-28T16:57:00.128Z,99372.41
2022-08-28T16:59:26.689Z,99369.97
2022-08-28T17:01:54.940Z,99376.94
2022-08-28T17:04:22.242Z,99366.97
2022-08-28T17:06:49.044Z,99372.72
2022-08-28T17:09:15.683Z,99376.13
2022-08-28T17:11:42.296Z,99377.16
2022-08-28T17:14:12.050Z,99386.03
2022-08-28T17:16:39.239Z,99377.41
2022-08-28T17:19:05.939Z,99387.00
2022-08-28T17:21:50.767Z,99386.66
2022-08-28T17:24:17.619Z,99381.56
2022-08-28T17:26:44.523Z,99387.16
2022-08-28T17:29:11.547Z,99384.81
2022-08-28T17:31:38.743Z,99384.88
2022-08-28T17:34:07.373Z,99383.34
2022-08-28T17:36:36.305Z,99386.56
2022-08-28T17:39:05.600Z,99394.53
2022-08-28T17:41:33.467Z,99398.53
2022-08-28T17:44:01.183Z,99393.78
2022-08-28T17:46:27.902Z,99394.22
2022-08-28T17:48:56.150Z,99389.44
2022-08-28T17:51:33.220Z,99393.03
2022-08-28T17:54:10.875Z,99393.00
2022-08-28T17:56:37.518Z,99399.34
2022-08-28T17:59:04.829Z,99399.75
2022-08-28T18:01:31.459Z,99399.34
2022-08-28T18:03:58.279Z,99400.56
2022-08-28T18:06:25.046Z,99408.81
2022-08-28T18:08:51.958Z,99404.47
2022-08-28T18:11:19.305Z,99407.97
2022-08-28T18:13:46.829Z,99410.31
2022-08-28T18:16:14.231Z,99407.13
2022-08-28T18:18:41.520Z,99418.97
2022-08-28T18:21:11.002Z,99417.34
2022-08-28T18:23:39.659Z,99412.59
2022-08-28T18:26:08.156Z,99422.78
2022-08-28T18:28:36.785Z,99429.03
2022-08-28T18:31:06.336Z,99428.25
2022-08-28T18:33:33.807Z,99428.97
2022-08-28T18:36:00.456Z,99424.97
2022-08-28T18:38:34.966Z,99431.25
2022-08-28T18:41:05.973Z,99440.31
2022-08-28T18:43:33.388Z,99451.31
2022-08-28T18:46:01.947Z,99445.38
2022-08-28T18:48:29.149Z,99456.34
2022-08-28T18:50:55.689Z,99456.72
2022-08-28T18:53:23.148Z,99460.25
2022-08-28T18:55:52.714Z,99471.19
2022-08-28T18:58:20.482Z,99479.78
2022-08-28T19:00:47.494Z,99474.19
2022-08-28T19:03:14.575Z,99480.03
2022-08-28T19:05:41.782Z,99489.41
2022-08-28T19:08:08.384Z,99492.91
2022-08-28T19:10:36.870Z,99494.41
2022-08-28T19:13:04.381Z,99495.91
2022-08-28T19:15:31.742Z,99493.09
2022-08-28T19:18:00.392Z,99500.13
2022-08-28T19:20:28.259Z,99495.75
2022-08-28T19:22:55.614Z,99503.59
2022-08-28T19:25:28.381Z,99510.63
2022-08-28T19:27:59.558Z,99508.56
2022-08-28T19:30:27.937Z,99511.28
2022-08-28T19:32:56.147Z,99516.72
2022-08-28T19:35:24.589Z,99519.81
2022-08-28T19:37:52.938Z,99519.75
2022-08-28T19:40:20.884Z,99521.25
2022-08-28T19:42:48.037Z,99531.44
2022-08-28T19:45:15.175Z,99532.97
2022-08-28T19:47:41.991Z,99539.22
2022-08-28T19:50:14.646Z,99538.38
2022-08-28T19:52:43.265Z,99551.72
2022-08-28T19:55:17.505Z,99548.06
2022-08-28T19:57:44.718Z,99548.41
2022-08-28T20:00:12.059Z,99554.59
2022-08-28T20:02:39.787Z,99556.06
2022-08-28T20:05:07.154Z,99557.53
2022-08-28T20:07:33.705Z,99567.69
2022-08-28T20:10:00.848Z,99568.03
2022-08-28T20:12:27.567Z,99564.41
2022-08-28T20:14:54.151Z,99572.63
2022-08-28T20:17:23.778Z,99569.38
2022-08-28T20:19:50.363Z,99566.16
2022-08-28T20:22:17.691Z,99574.34
2022-08-28T20:24:44.317Z,99569.50
2022-08-28T20:27:11.074Z,99571.72
2022-08-28T20:29:39.102Z,99566.94
2022-08-28T20:32:05.800Z,99576.69
2022-08-28T20:34:32.441Z,99575.81
2022-08-28T20:36:59.029Z,99581.63
2022-08-28T20:39:25.785Z,99579.16
2022-08-28T20:41:52.414Z,99582.22
2022-08-28T20:44:20.528Z,99572.28
2022-08-28T20:46:51.265Z,99591.44
2022-08-28T20:49:21.853Z,99583.81
2022-08-28T20:51:56.625Z,99590.34
2022-08-28T20:54:27.497Z,99590.66
2022-08-28T20:56:55.646Z,99590.91
2022-08-28T20:59:22.285Z,99592.34
2022-08-28T21:01:51.978Z,99589.88
2022-08-28T21:04:19.509Z,99593.66
2022-08-28T21:06:48.932Z,99593.47
2022-08-28T21:09:17.170Z,99604.75
2022-08-28T21:11:44.176Z,99610.56
2022-08-28T21:14:11.497Z,99604.97
2022-08-28T21:16:40.269Z,99602.84
2022-08-28T21:19:15.690Z,99601.63
2022-08-28T21:21:44.072Z,99603.13
2022-08-28T21:24:13.288Z,99603.84
2022-08-28T21:26:45.187Z,99603.31
2022-08-28T21:29:12.825Z,99611.31
2022-08-28T21:31:42.600Z,99602.28
2022-08-28T21:34:10.616Z,99602.63
2022-08-28T21:36:41.524Z,99605.31
2022-08-28T21:39:08.081Z,99605.66
2022-08-28T21:41:34.755Z,99610.25
2022-08-28T21:44:01.391Z,99607.78
2022-08-28T21:46:29.055Z,99609.63
2022-08-28T21:48:56.661Z,99616.19
2022-08-28T21:51:24.588Z,99609.81
2022-08-28T21:53:52.019Z,99608.91
2022-08-28T21:56:26.852Z,99618.94
2022-08-28T21:58:54.558Z,99618.47
2022-08-28T22:01:24.602Z,99613.69
2022-08-28T22:03:51.506Z,99621.50
2022-08-28T22:06:22.040Z,99629.66
2022-08-28T22:08:49.777Z,99616.53
2022-08-28T22:11:17.073Z,99622.28
2022-08-28T22:13:51.729Z,99628.00
2022-08-28T22:16:18.435Z,99638.81
2022-08-28T22:18:45.161Z,99633.66
2022-08-28T22:21:35.826Z,99639.84
2022-08-28T22:24:02.572Z,99641.38
2022-08-28T22:26:29.276Z,99637.75
2022-08-28T22:28:56.960Z,99641.16
2022-08-28T22:31:24.698Z,99636.25
2022-08-28T22:33:52.484Z,99639.59
2022-08-28T22:36:20.381Z,99637.78
2022-08-28T22:38:53.070Z,99646.25
2022-08-28T22:41:20.310Z,99644.47
2022-08-28T22:43:48.436Z,99640.84
2022-08-28T22:46:18.833Z,99650.91
2022-08-28T22:48:46.032Z,99653.16
2022-08-28T22:51:15.231Z,99649.97
2022-08-28T22:53:43.690Z,99645.19
2022-08-28T22:56:12.258Z,99658.00
2022-08-28T22:58:39.511Z,99662.59
2022-08-28T23:01:10.260Z,99661.00
2022-08-28T23:03:37.517Z,99656.53
2022-08-28T23:06:04.172Z,99665.13
2022-08-28T23:08:33.863Z,99661.00
2022-08-28T23:11:01.148Z,99666.38
2022-08-28T23:13:28.550Z,99671.06
2022-08-28T23:15:55.133Z,99662.38
2022-08-28T23:18:21.768Z,99662.38
2022-08-28T23:20:50.538Z,99662.72
2022-08-28T23:23:17.449Z,99664.78
2022-08-28T23:25:44.314Z,99669.47
2022-08-28T23:28:10.880Z,99668.66
2022-08-28T23:30:39.020Z,99664.66
2022-08-28T23:33:08.450Z,99665.81
2022-08-28T23:35:36.300Z,99659.53
2022-08-28T23:38:04.635Z,99650.53
2022-08-28T23:40:33.934Z,99648.94
2022-08-28T23:43:00.877Z,99647.31
2022-08-28T23:45:27.546Z,99648.47
2022-08-28T23:47:54.917Z,99653.47
2022-08-28T23:50:22.981Z,99640.09
2022-08-28T23:52:50.312Z,99642.38
2022-08-28T23:55:18.742Z,99639.97
2022-08-28T23:57:45.719Z,99639.97
